createdAt,value
2018-04-29T00:00:02.619Z,0
2018-04-29T00:05:03.142Z,0
2018-04-29T00:10:02.783Z,0
2018-04-29T00:15:03.292Z,0
2018-04-29T00:20:02.926Z,0
2018-04-29T00:25:03.536Z,0
2018-04-29T00:30:03.110Z,0
2018-04-29T00:35:02.718Z,0
2018-04-29T00:40:03.334Z,0
2018-04-29T00:45:02.904Z,0
2018-04-29T00:50:03.439Z,0
2018-04-29T00:55:02.976Z,0
2018-04-29T01:00:03.598Z,0
2018-04-29T01:05:03.213Z,0
2018-04-29T01:10:02.883Z,0
2018-04-29T01:15:03.505Z,0
2018-04-29T01:20:03.109Z,0
2018-04-29T01:25:02.711Z,0
2018-04-29T01:30:03.262Z,0
2018-04-29T01:35:02.824Z,0
2018-04-29T01:40:03.463Z,0
2018-04-29T01:45:03.026Z,0
2018-04-29T01:50:03.616Z,0
2018-04-29T01:55:03.050Z,0
2018-04-29T02:00:03.596Z,0
2018-04-29T02:05:03.113Z,0
2018-04-29T02:10:02.686Z,0
2018-04-29T02:15:03.412Z,0
2018-04-29T02:20:02.959Z,0
2018-04-29T02:25:03.517Z,0
2018-04-29T02:30:03.000Z,0
2018-04-29T02:35:03.561Z,0
2018-04-29T02:40:03.113Z,0
2018-04-29T02:45:02.869Z,0
2018-04-29T02:50:03.442Z,0
2018-04-29T02:55:03.067Z,0
2018-04-29T03:00:02.672Z,0
2018-04-29T03:05:03.263Z,0
2018-04-29T03:10:02.841Z,0
2018-04-29T03:15:03.389Z,0
2018-04-29T03:20:02.967Z,0
2018-04-29T03:25:03.525Z,0
2018-04-29T03:30:03.136Z,0
2018-04-29T03:35:02.718Z,0
2018-04-29T03:40:03.318Z,0
2018-04-29T03:45:02.873Z,0
2018-04-29T03:50:03.398Z,0
2018-04-29T03:55:03.021Z,0
2018-04-29T04:00:03.538Z,0
2018-04-29T04:05:03.086Z,0
2018-04-29T04:10:02.757Z,0
2018-04-29T04:15:03.369Z,0
2018-04-29T04:20:02.914Z,0
2018-04-29T04:25:03.477Z,0
2018-04-29T04:30:03.140Z,0
2018-04-29T04:35:02.755Z,0
2018-04-29T04:40:03.324Z,0
2018-04-29T04:45:02.859Z,0
2018-04-29T04:50:02.805Z,0
2018-04-29T04:55:03.470Z,0
2018-04-29T05:00:03.035Z,0
2018-04-29T05:05:03.543Z,0
2018-04-29T05:10:03.156Z,0
2018-04-29T05:15:02.702Z,0
2018-04-29T05:20:03.369Z,0
2018-04-29T05:25:02.943Z,0
2018-04-29T05:30:03.471Z,0
2018-04-29T05:40:02.743Z,0
2018-04-29T05:45:03.421Z,0
2018-04-29T05:50:02.974Z,0
2018-04-29T05:55:03.573Z,0
2018-04-29T06:00:03.037Z,0
2018-04-29T06:05:02.647Z,0
2018-04-29T06:10:03.305Z,0
2018-04-29T06:15:02.922Z,0
2018-04-29T06:20:03.521Z,0
2018-04-29T06:25:03.061Z,0
2018-04-29T06:30:02.656Z,0
2018-04-29T06:35:03.256Z,0
2018-04-29T06:40:02.864Z,0
2018-04-29T06:50:03.108Z,0
2018-04-29T06:55:03.598Z,0
2018-04-29T07:00:03.434Z,0
2018-04-29T07:05:03.032Z,0
2018-04-29T07:10:02.666Z,0
2018-04-29T07:15:03.257Z,0
2018-04-29T07:20:03.091Z,1
2018-04-29T07:25:02.931Z,0
2018-04-29T07:30:03.504Z,0
2018-04-29T07:35:03.043Z,0
2018-04-29T07:40:02.884Z,0
2018-04-29T07:45:03.536Z,0
2018-04-29T07:50:03.102Z,0
2018-04-29T07:55:02.772Z,0
2018-04-29T08:00:03.337Z,0
2018-04-29T08:05:02.875Z,0
2018-04-29T08:10:03.697Z,1
2018-04-29T08:15:03.267Z,0
2018-04-29T08:20:02.873Z,0
2018-04-29T08:25:03.433Z,0
2018-04-29T08:30:03.407Z,0
2018-04-29T08:35:03.089Z,0
2018-04-29T08:40:02.787Z,0
2018-04-29T08:45:03.467Z,0
2018-04-29T08:50:03.042Z,0
2018-04-29T08:55:03.718Z,0
2018-04-29T09:00:03.289Z,0
2018-04-29T09:05:02.863Z,0
2018-04-29T09:10:03.497Z,0
2018-04-29T09:15:03.025Z,0
2018-04-29T09:20:02.675Z,0
2018-04-29T09:25:03.408Z,0
2018-04-29T09:30:03.029Z,0
2018-04-29T09:35:03.588Z,0
2018-04-29T09:40:03.178Z,0
2018-04-29T09:45:02.789Z,0
2018-04-29T09:50:03.316Z,0
2018-04-29T09:55:02.804Z,0
2018-04-29T10:00:03.326Z,0
2018-04-29T10:05:02.961Z,0
2018-04-29T10:10:03.635Z,0
2018-04-29T10:15:03.245Z,0
2018-04-29T10:20:02.972Z,0
2018-04-29T10:25:03.513Z,0
2018-04-29T10:30:03.103Z,0
2018-04-29T10:35:02.695Z,1
2018-04-29T10:40:03.320Z,0
2018-04-29T10:45:02.854Z,0
2018-04-29T10:50:03.545Z,0
2018-04-29T10:55:03.102Z,0
2018-04-29T11:00:02.797Z,0
2018-04-29T11:05:03.399Z,0
2018-04-29T11:10:03.002Z,0
2018-04-29T11:15:03.570Z,3
2018-04-29T11:20:03.153Z,0
2018-04-29T11:25:02.688Z,0
2018-04-29T11:30:03.279Z,3
2018-04-29T11:35:02.862Z,4
2018-04-29T11:40:03.475Z,1
2018-04-29T11:45:03.095Z,5
2018-04-29T11:50:02.702Z,3
2018-04-29T11:55:03.267Z,3
2018-04-29T12:00:02.859Z,2
2018-04-29T12:05:03.419Z,4
2018-04-29T12:10:03.049Z,4
2018-04-29T12:15:02.631Z,2
2018-04-29T12:20:03.226Z,3
2018-04-29T12:25:02.761Z,2
2018-04-29T12:30:03.284Z,2
2018-04-29T12:35:02.864Z,6
2018-04-29T12:40:03.495Z,3
2018-04-29T12:45:03.079Z,2
2018-04-29T12:50:02.623Z,2
2018-04-29T12:55:03.184Z,2
2018-04-29T13:00:02.926Z,3
2018-04-29T13:05:02.643Z,4
2018-04-29T13:10:03.520Z,1
2018-04-29T13:15:03.043Z,0
2018-04-29T13:20:02.785Z,1
2018-04-29T13:25:03.425Z,3
2018-04-29T13:30:02.966Z,3
2018-04-29T13:35:03.495Z,1
2018-04-29T13:40:03.213Z,4
2018-04-29T13:45:02.771Z,2
2018-04-29T13:50:03.421Z,3
2018-04-29T13:55:02.960Z,2
2018-04-29T14:00:03.518Z,2
2018-04-29T14:05:03.206Z,1
2018-04-29T14:10:02.828Z,1
2018-04-29T14:15:03.472Z,0
2018-04-29T14:20:03.029Z,2
2018-04-29T14:25:03.636Z,0
2018-04-29T14:30:03.205Z,0
2018-04-29T14:35:02.831Z,0
2018-04-29T14:40:03.514Z,2
2018-04-29T14:45:03.055Z,1
2018-04-29T14:50:03.606Z,1
2018-04-29T14:55:03.145Z,2
2018-04-29T15:00:02.946Z,2
2018-04-29T15:05:03.535Z,3
2018-04-29T15:10:03.173Z,2
2018-04-29T15:15:02.773Z,2
2018-04-29T15:20:03.362Z,0
2018-04-29T15:25:02.909Z,3
2018-04-29T15:30:03.448Z,1
2018-04-29T15:35:03.011Z,1
2018-04-29T15:40:02.727Z,1
2018-04-29T15:45:03.267Z,0
2018-04-29T15:50:02.808Z,3
2018-04-29T15:55:03.355Z,2
2018-04-29T16:00:02.920Z,1
2018-04-29T16:05:03.535Z,0
2018-04-29T16:10:03.169Z,0
2018-04-29T16:15:02.804Z,0
2018-04-29T16:20:03.332Z,0
2018-04-29T16:25:02.854Z,0
2018-04-29T16:30:03.405Z,0
2018-04-29T16:35:02.928Z,0
2018-04-29T16:40:03.539Z,0
2018-04-29T16:45:03.107Z,1
2018-04-29T16:50:02.656Z,0
2018-04-29T16:55:03.216Z,3
2018-04-29T17:00:02.847Z,0
2018-04-29T17:05:03.417Z,0
2018-04-29T17:10:03.031Z,1
2018-04-29T17:15:02.657Z,1
2018-04-29T17:20:03.294Z,2
2018-04-29T17:25:02.853Z,1
2018-04-29T17:30:03.389Z,1
2018-04-29T17:35:02.964Z,2
2018-04-29T17:40:03.552Z,3
2018-04-29T17:45:03.135Z,3
2018-04-29T17:50:02.723Z,2
2018-04-29T17:55:03.283Z,2
2018-04-29T18:00:02.852Z,3
2018-04-29T18:05:03.429Z,2
2018-04-29T18:10:02.949Z,1
2018-04-29T18:15:03.467Z,1
2018-04-29T18:20:03.063Z,2
2018-04-29T18:25:02.679Z,1
2018-04-29T18:30:03.312Z,0
2018-04-29T18:35:03.061Z,0
2018-04-29T18:40:02.636Z,2
2018-04-29T18:45:03.278Z,2
2018-04-29T18:50:02.872Z,2
2018-04-29T18:55:03.426Z,4
2018-04-29T19:00:02.939Z,3
2018-04-29T19:05:03.542Z,3
2018-04-29T19:10:03.127Z,3
2018-04-29T19:15:02.756Z,2
2018-04-29T19:20:03.298Z,5
2018-04-29T19:25:02.842Z,5
2018-04-29T19:30:03.390Z,4
2018-04-29T19:35:02.985Z,3
2018-04-29T19:40:03.609Z,4
2018-04-29T19:45:03.167Z,3
2018-04-29T19:50:02.762Z,4
2018-04-29T19:55:03.471Z,3
2018-04-29T20:00:03.545Z,5
2018-04-29T20:05:03.216Z,3
2018-04-29T20:10:02.858Z,3
2018-04-29T20:15:03.446Z,3
2018-04-29T20:20:03.028Z,4
2018-04-29T20:25:03.715Z,4
2018-04-29T20:30:03.648Z,4
2018-04-29T20:35:03.492Z,5
2018-04-29T20:40:03.111Z,5
2018-04-29T20:45:02.700Z,6
2018-04-29T20:50:03.313Z,4
2018-04-29T20:55:02.936Z,5
2018-04-29T21:00:03.530Z,5
2018-04-29T21:05:03.104Z,3
2018-04-29T21:10:02.754Z,3
2018-04-29T21:15:03.335Z,3
2018-04-29T21:20:02.902Z,4
2018-04-29T21:25:03.424Z,3
2018-04-29T21:30:03.139Z,7
2018-04-29T21:35:02.738Z,4
2018-04-29T21:40:03.448Z,3
2018-04-29T21:45:03.049Z,5
2018-04-29T21:50:03.593Z,5
2018-04-29T21:55:03.190Z,5
2018-04-29T22:00:02.821Z,6
2018-04-29T22:05:03.398Z,8
2018-04-29T22:10:03.026Z,5
2018-04-29T22:15:03.694Z,6
2018-04-29T22:20:03.315Z,4
2018-04-29T22:25:02.905Z,5
2018-04-29T22:30:03.527Z,5
2018-04-29T22:35:03.107Z,6
2018-04-29T22:40:02.761Z,5
2018-04-29T22:45:03.321Z,9
2018-04-29T22:50:02.831Z,8
2018-04-29T22:55:03.406Z,7
2018-04-29T23:00:02.909Z,6
2018-04-29T23:05:03.519Z,7
2018-04-29T23:10:03.143Z,6
2018-04-29T23:15:02.873Z,4
2018-04-29T23:20:03.585Z,11
2018-04-29T23:25:03.149Z,6
2018-04-29T23:30:02.965Z,7
2018-04-29T23:35:03.614Z,7
2018-04-29T23:40:03.281Z,6
2018-04-29T23:45:02.830Z,1
2018-04-29T23:50:03.433Z,3
2018-04-29T23:55:03.042Z,0
